createdAt,value
2018-07-04T00:00:50.869Z,63.41
2018-07-04T00:01:50.954Z,62.35
2018-07-04T00:02:50.922Z,62.25
2018-07-04T00:03:51.018Z,62.54
2018-07-04T00:04:50.817Z,62.35
2018-07-04T00:05:50.890Z,63.60
2018-07-04T00:06:50.958Z,62.93
2018-07-04T00:07:51.022Z,62.25
2018-07-04T00:08:51.092Z,61.29
2018-07-04T00:09:51.166Z,59.84
2018-07-04T00:10:51.218Z,60.61
2018-07-04T00:11:51.438Z,61.38
2018-07-04T00:12:51.354Z,61.48
2018-07-04T00:13:51.420Z,60.90
2018-07-04T00:14:51.490Z,61.29
2018-07-04T00:15:51.554Z,61.10
2018-07-04T00:16:51.630Z,62.73
2018-07-04T00:17:51.695Z,62.83
2018-07-04T00:18:51.754Z,61.87
2018-07-04T00:19:51.823Z,61.77
2018-07-04T00:20:51.891Z,61.87
2018-07-04T00:21:51.962Z,61.38
2018-07-04T00:22:52.034Z,58.01
2018-07-04T00:23:52.091Z,60.03
2018-07-04T00:24:52.154Z,61.38
2018-07-04T00:25:52.223Z,59.84
2018-07-04T00:26:52.292Z,60.71
2018-07-04T00:27:52.370Z,60.23
2018-07-04T00:28:52.423Z,58.59
2018-07-04T00:29:52.491Z,59.07
2018-07-04T00:30:52.559Z,61.38
2018-07-04T00:31:52.627Z,62.35
2018-07-04T00:32:52.702Z,63.60
2018-07-04T00:33:52.771Z,62.73
2018-07-04T00:34:52.827Z,61.19
2018-07-04T00:35:52.895Z,63.12
2018-07-04T00:36:52.959Z,61.38
2018-07-04T00:37:53.035Z,61.38
2018-07-04T00:38:53.103Z,61.58
2018-07-04T00:39:53.163Z,61.48
2018-07-04T00:40:53.227Z,63.79
2018-07-04T00:41:53.298Z,63.79
2018-07-04T00:42:53.371Z,63.70
2018-07-04T00:43:53.435Z,63.70
2018-07-04T00:44:53.496Z,63.60
2018-07-04T00:45:53.563Z,63.98
2018-07-04T00:46:53.637Z,63.60
2018-07-04T00:47:53.704Z,64.28
2018-07-04T00:48:53.772Z,61.10
2018-07-04T00:49:53.831Z,60.61
2018-07-04T00:50:53.908Z,60.90
2018-07-04T00:51:53.968Z,62.73
2018-07-04T00:52:54.040Z,62.45
2018-07-04T00:53:54.108Z,63.31
2018-07-04T00:54:54.168Z,61.19
2018-07-04T00:55:54.232Z,59.84
2018-07-04T00:56:54.300Z,60.90
2018-07-04T00:57:54.384Z,58.11
2018-07-04T00:58:54.436Z,60.61
2018-07-04T00:59:54.500Z,58.01
2018-07-04T01:00:54.568Z,61.48
2018-07-04T01:01:54.636Z,60.80
2018-07-04T01:02:54.708Z,59.84
2018-07-04T01:03:54.777Z,59.36
2018-07-04T01:04:54.836Z,60.52
2018-07-04T01:05:54.909Z,60.80
2018-07-04T01:06:54.969Z,56.37
2018-07-04T01:07:55.045Z,56.66
2018-07-04T01:08:55.109Z,56.47
2018-07-04T01:09:55.168Z,59.94
2018-07-04T01:10:55.239Z,56.18
2018-07-04T01:11:55.306Z,57.82
2018-07-04T01:12:55.400Z,58.49
2018-07-04T01:13:55.437Z,58.78
2018-07-04T01:14:55.513Z,60.80
2018-07-04T01:15:55.573Z,59.75
2018-07-04T01:16:55.641Z,58.59
2018-07-04T01:17:55.712Z,58.20
2018-07-04T01:18:55.780Z,61.10
2018-07-04T01:19:55.840Z,61.68
2018-07-04T01:20:55.905Z,60.80
2018-07-04T01:21:55.978Z,61.68
2018-07-04T01:22:56.052Z,61.19
2018-07-04T01:23:56.121Z,62.54
2018-07-04T01:24:56.173Z,61.19
2018-07-04T01:25:56.241Z,60.80
2018-07-04T01:26:56.313Z,62.15
2018-07-04T01:27:56.461Z,63.18
2018-07-04T01:28:56.441Z,62.80
2018-07-04T01:29:56.512Z,61.65
2018-07-04T01:30:56.577Z,61.83
2018-07-04T01:31:56.641Z,61.25
2018-07-04T01:32:56.716Z,62.45
2018-07-04T01:33:56.781Z,62.73
2018-07-04T01:34:56.840Z,62.35
2018-07-04T01:35:56.909Z,62.45
2018-07-04T01:36:56.977Z,63.79
2018-07-04T01:37:57.049Z,61.38
2018-07-04T01:38:57.117Z,61.87
2018-07-04T01:39:57.177Z,59.17
2018-07-04T01:40:57.245Z,59.17
2018-07-04T01:41:57.314Z,58.69
2018-07-04T01:42:57.573Z,58.88
2018-07-04T01:43:57.450Z,60.23
2018-07-04T01:44:57.509Z,60.23
2018-07-04T01:45:57.581Z,60.03
2018-07-04T01:46:57.650Z,60.52
2018-07-04T01:47:57.718Z,61.48
2018-07-04T01:48:57.789Z,61.96
2018-07-04T01:49:57.849Z,57.92
2018-07-04T01:50:57.914Z,58.20
2018-07-04T01:51:57.982Z,59.75
2018-07-04T01:52:58.054Z,59.07
2018-07-04T01:53:58.118Z,59.91
2018-07-04T01:54:58.182Z,60.30
2018-07-04T01:55:58.245Z,59.62
2018-07-04T01:56:58.318Z,60.61
2018-07-04T01:57:58.388Z,60.87
2018-07-04T01:58:58.450Z,61.55
2018-07-04T01:59:58.514Z,62.99
2018-07-04T02:00:58.582Z,63.85
2018-07-04T02:01:58.646Z,62.80
2018-07-04T02:02:58.723Z,63.57
2018-07-04T02:03:58.791Z,63.57
2018-07-04T02:04:58.846Z,63.76
2018-07-04T02:05:58.914Z,62.70
2018-07-04T02:06:58.983Z,62.09
2018-07-04T02:07:59.057Z,63.92
2018-07-04T02:08:59.122Z,63.92
2018-07-04T02:09:59.183Z,64.21
2018-07-04T02:10:59.251Z,66.52
2018-07-04T02:11:59.315Z,65.46
2018-07-04T02:12:59.391Z,64.89
2018-07-04T02:13:59.454Z,64.89
2018-07-04T02:14:59.515Z,66.14
2018-07-04T02:15:59.583Z,67.77
2018-07-04T02:16:59.651Z,67.77
2018-07-04T02:17:59.727Z,67.93
2018-07-04T02:18:59.791Z,67.35
2018-07-04T02:19:59.852Z,67.16
2018-07-04T02:20:59.915Z,66.68
2018-07-04T02:21:59.986Z,67.83
2018-07-04T02:23:00.063Z,67.45
2018-07-04T02:24:00.123Z,67.83
2018-07-04T02:25:00.183Z,68.03
2018-07-04T02:26:00.251Z,68.90
2018-07-04T02:27:00.317Z,68.41
2018-07-04T02:28:00.391Z,66.97
2018-07-04T02:29:00.460Z,67.55
2018-07-04T02:30:00.515Z,67.45
2018-07-04T02:31:00.584Z,66.58
2018-07-04T02:32:00.652Z,64.66
2018-07-04T02:33:00.723Z,64.95
2018-07-04T02:34:00.787Z,66.10
2018-07-04T02:35:00.851Z,66.39
2018-07-04T02:36:00.920Z,64.66
2018-07-04T02:37:01.002Z,66.68
2018-07-04T02:38:01.056Z,67.29
2018-07-04T02:39:01.124Z,66.58
2018-07-04T02:40:01.184Z,65.81
2018-07-04T02:41:01.251Z,63.82
2018-07-04T02:42:01.315Z,64.59
2018-07-04T02:43:01.388Z,65.94
2018-07-04T02:44:01.460Z,64.66
2018-07-04T02:45:01.593Z,65.66
2018-07-04T02:46:01.594Z,63.25
2018-07-04T02:47:01.652Z,61.52
2018-07-04T02:48:01.724Z,61.77
2018-07-04T02:49:01.788Z,63.82
2018-07-04T02:50:01.845Z,64.69
2018-07-04T02:51:01.916Z,64.50
2018-07-04T02:52:01.980Z,66.24
2018-07-04T02:53:02.052Z,66.58
2018-07-04T02:54:02.125Z,64.37
2018-07-04T02:55:02.185Z,63.99
2018-07-04T02:56:02.248Z,64.66
2018-07-04T02:57:02.313Z,64.66
2018-07-04T02:58:02.418Z,64.18
2018-07-04T02:59:02.452Z,63.70
2018-07-04T03:00:02.517Z,65.14
2018-07-04T03:01:02.591Z,66.68
2018-07-04T03:02:02.649Z,66.97
2018-07-04T03:03:02.721Z,67.45
2018-07-04T03:04:02.785Z,67.61
2018-07-04T03:05:02.845Z,68.03
2018-07-04T03:06:02.913Z,69.34
2018-07-04T03:07:02.981Z,69.06
2018-07-04T03:08:03.054Z,66.94
2018-07-04T03:09:03.117Z,67.03
2018-07-04T03:10:03.193Z,68.38
2018-07-04T03:11:03.245Z,68.29
2018-07-04T03:12:03.313Z,69.15
2018-07-04T03:13:03.385Z,70.30
2018-07-04T03:14:03.453Z,70.11
2018-07-04T03:15:03.512Z,68.76
2018-07-04T03:16:03.577Z,69.34
2018-07-04T03:17:03.645Z,69.31
2018-07-04T03:18:03.718Z,69.12
2018-07-04T03:19:03.802Z,69.69
2018-07-04T03:20:03.852Z,68.83
2018-07-04T03:21:03.910Z,70.56
2018-07-04T03:22:03.973Z,69.12
2018-07-04T03:23:04.054Z,71.23
2018-07-04T03:24:04.114Z,69.02
2018-07-04T03:25:04.175Z,69.31
2018-07-04T03:26:04.242Z,68.92
2018-07-04T03:27:04.306Z,69.98
2018-07-04T03:28:04.486Z,68.83
2018-07-04T03:29:04.438Z,69.12
2018-07-04T03:30:04.506Z,68.73
2018-07-04T03:31:04.574Z,68.73
2018-07-04T03:32:04.638Z,70.27
2018-07-04T03:33:04.742Z,68.73
2018-07-04T03:34:04.778Z,69.18
2018-07-04T03:35:04.838Z,69.27
2018-07-04T03:36:04.903Z,68.51
2018-07-04T03:37:04.972Z,70.43
2018-07-04T03:38:05.043Z,68.02
2018-07-04T03:39:05.110Z,68.70
2018-07-04T03:40:05.171Z,68.70
2018-07-04T03:41:05.239Z,69.08
2018-07-04T03:42:05.299Z,69.75
2018-07-04T03:43:05.375Z,70.62
2018-07-04T03:44:05.444Z,70.43
2018-07-04T03:45:05.499Z,69.18
2018-07-04T03:46:05.567Z,69.66
2018-07-04T03:47:05.631Z,69.27
2018-07-04T03:48:05.703Z,71.29
2018-07-04T03:49:05.772Z,69.85
2018-07-04T03:50:05.832Z,71.00
2018-07-04T03:51:05.895Z,71.67
2018-07-04T03:52:05.963Z,71.48
2018-07-04T03:53:06.036Z,72.44
2018-07-04T03:54:06.099Z,71.29
2018-07-04T03:55:06.160Z,70.43
2018-07-04T03:56:06.228Z,70.62
2018-07-04T03:57:06.291Z,70.72
2018-07-04T03:58:06.418Z,72.44
2018-07-04T03:59:06.428Z,71.58
2018-07-04T04:00:06.492Z,70.43
2018-07-04T04:01:06.556Z,70.81
2018-07-04T04:02:06.624Z,71.87
2018-07-04T04:03:06.696Z,71.48
2018-07-04T04:04:06.764Z,72.64
2018-07-04T04:05:06.821Z,70.72
2018-07-04T04:06:06.888Z,71.77
2018-07-04T04:07:06.956Z,73.02
2018-07-04T04:08:07.028Z,73.21
2018-07-04T04:09:07.092Z,71.87
2018-07-04T04:10:07.152Z,70.90
2018-07-04T04:11:07.216Z,72.83
2018-07-04T04:12:07.284Z,71.10
2018-07-04T04:13:07.356Z,70.81
2018-07-04T04:14:07.420Z,69.18
2018-07-04T04:15:07.480Z,70.33
2018-07-04T04:16:07.548Z,69.21
2018-07-04T04:17:07.613Z,71.42
2018-07-04T04:18:07.685Z,70.75
2018-07-04T04:19:07.753Z,69.40
2018-07-04T04:20:07.816Z,69.31
2018-07-04T04:21:07.877Z,69.50
2018-07-04T04:22:07.948Z,68.25
2018-07-04T04:23:08.029Z,70.94
2018-07-04T04:24:08.085Z,70.88
2018-07-04T04:25:08.141Z,72.19
2018-07-04T04:26:08.209Z,73.06
2018-07-04T04:27:08.327Z,72.80
2018-07-04T04:28:08.349Z,70.21
2018-07-04T04:29:08.413Z,72.52
2018-07-04T04:30:08.474Z,71.23
2018-07-04T04:31:08.537Z,70.46
2018-07-04T04:32:08.609Z,71.75
2018-07-04T04:33:08.677Z,69.53
2018-07-04T04:34:08.745Z,71.46
2018-07-04T04:35:08.805Z,71.75
2018-07-04T04:36:08.914Z,71.65
2018-07-04T04:37:08.938Z,71.55
2018-07-04T04:38:09.056Z,69.24
2018-07-04T04:39:09.073Z,72.61
2018-07-04T04:40:09.134Z,72.71
2018-07-04T04:41:09.205Z,71.84
2018-07-04T04:42:09.266Z,72.03
2018-07-04T04:43:09.638Z,70.59
2018-07-04T04:44:09.397Z,73.38
2018-07-04T04:45:09.466Z,72.13
2018-07-04T04:46:09.530Z,70.98
2018-07-04T04:47:09.598Z,69.92
2018-07-04T04:48:09.674Z,68.60
2018-07-04T04:49:09.738Z,70.05
2018-07-04T04:50:09.798Z,71.78
2018-07-04T04:51:09.865Z,72.94
2018-07-04T04:52:09.931Z,69.09
2018-07-04T04:53:10.011Z,66.49
2018-07-04T04:54:10.070Z,68.06
2018-07-04T04:55:10.130Z,68.03
2018-07-04T04:56:10.195Z,65.91
2018-07-04T04:57:10.262Z,64.89
2018-07-04T04:58:10.326Z,63.92
2018-07-04T04:59:10.706Z,63.73
2018-07-04T05:00:10.462Z,63.92
2018-07-04T05:01:10.530Z,62.87
2018-07-04T05:02:10.595Z,63.44
2018-07-04T05:03:10.660Z,64.05
2018-07-04T05:04:10.734Z,66.46
2018-07-04T05:05:10.799Z,64.05
2018-07-04T05:06:10.858Z,63.76
2018-07-04T05:07:10.926Z,63.47
2018-07-04T05:08:10.990Z,63.85
2018-07-04T05:09:11.067Z,63.76
2018-07-04T05:10:11.126Z,63.76
2018-07-04T05:11:11.191Z,62.99
2018-07-04T05:12:11.258Z,63.67
2018-07-04T05:13:11.323Z,65.24
2018-07-04T05:14:11.403Z,64.56
2018-07-04T05:15:11.468Z,64.86
2018-07-04T05:16:11.531Z,66.30
2018-07-04T05:17:11.592Z,64.76
2018-07-04T05:18:11.664Z,63.79
2018-07-04T05:19:11.731Z,64.08
2018-07-04T05:20:11.799Z,64.18
2018-07-04T05:21:11.860Z,64.28
2018-07-04T05:22:11.929Z,63.50
2018-07-04T05:23:11.991Z,63.31
2018-07-04T05:24:12.072Z,62.73
2018-07-04T05:25:12.132Z,63.02
2018-07-04T05:26:12.192Z,63.92
2018-07-04T05:27:12.264Z,64.11
2018-07-04T05:28:12.371Z,62.57
2018-07-04T05:29:12.400Z,62.66
2018-07-04T05:30:12.480Z,62.76
2018-07-04T05:31:12.528Z,62.38
2018-07-04T05:32:12.596Z,62.31
2018-07-04T05:33:12.660Z,61.80
2018-07-04T05:34:12.756Z,61.61
2018-07-04T05:35:12.838Z,61.44
2018-07-04T05:36:12.866Z,61.54
2018-07-04T05:37:12.935Z,61.44
2018-07-04T05:38:12.996Z,61.93
2018-07-04T05:39:13.216Z,61.83
2018-07-04T05:40:13.132Z,61.25
2018-07-04T05:41:13.201Z,61.64
2018-07-04T05:42:13.264Z,61.44
2018-07-04T05:43:13.332Z,61.83
2018-07-04T05:44:13.408Z,60.48
2018-07-04T05:45:13.477Z,60.99
2018-07-04T05:46:13.537Z,60.13
2018-07-04T05:47:13.604Z,60.03
2018-07-04T05:48:13.672Z,61.09
2018-07-04T05:49:13.744Z,59.83
2018-07-04T05:50:13.816Z,59.74
2018-07-04T05:51:13.872Z,58.80
2018-07-04T05:52:13.940Z,58.61
2018-07-04T05:53:14.009Z,59.09
2018-07-04T05:54:14.237Z,58.51
2018-07-04T05:55:14.140Z,58.03
2018-07-04T05:56:14.252Z,57.45
2018-07-04T05:57:14.282Z,56.00
2018-07-04T05:58:14.348Z,56.10
2018-07-04T05:59:14.424Z,56.13
2018-07-04T06:00:14.489Z,56.41
2018-07-04T06:01:14.552Z,55.26
2018-07-04T06:02:14.621Z,54.97
2018-07-04T06:03:14.685Z,54.68
2018-07-04T06:04:14.761Z,54.10
2018-07-04T06:05:14.825Z,53.61
2018-07-04T06:06:14.885Z,53.13
2018-07-04T06:07:14.953Z,53.71
2018-07-04T06:08:15.022Z,53.45
2018-07-04T06:09:15.127Z,54.22
2018-07-04T06:10:15.157Z,53.35
2018-07-04T06:11:15.225Z,53.55
2018-07-04T06:12:15.294Z,53.64
2018-07-04T06:13:15.362Z,54.13
2018-07-04T06:14:15.438Z,53.57
2018-07-04T06:15:15.506Z,52.97
2018-07-04T06:16:15.566Z,52.31
2018-07-04T06:17:15.639Z,52.44
2018-07-04T06:18:15.702Z,51.78
2018-07-04T06:19:15.800Z,50.87
2018-07-04T06:20:15.846Z,49.44
2018-07-04T06:21:15.906Z,48.03
2018-07-04T06:22:15.978Z,47.20
2018-07-04T06:23:16.046Z,46.84
2018-07-04T06:24:16.118Z,44.89
2018-07-04T06:25:16.203Z,45.17
2018-07-04T06:26:16.258Z,45.24
2018-07-04T06:27:16.330Z,46.09
2018-07-04T06:28:16.403Z,46.84
2018-07-04T06:29:16.470Z,46.65
2018-07-04T06:30:16.546Z,47.79
2018-07-04T06:31:16.619Z,48.27
2018-07-04T06:32:16.682Z,47.16
2018-07-04T06:33:16.751Z,45.84
2018-07-04T06:34:16.819Z,43.82
2018-07-04T06:35:16.899Z,43.75
2018-07-04T06:36:16.971Z,42.31
2018-07-04T06:37:17.035Z,41.75
2018-07-04T06:38:17.107Z,41.79
2018-07-04T06:39:17.179Z,42.18
2018-07-04T06:40:17.251Z,40.35
2018-07-04T06:41:17.471Z,39.18
2018-07-04T06:42:17.396Z,38.81
2018-07-04T06:43:17.467Z,38.04
2018-07-04T06:44:17.548Z,37.63
2018-07-04T06:45:17.622Z,38.98
2018-07-04T06:46:17.695Z,38.85
2018-07-04T06:47:17.767Z,39.62
2018-07-04T06:48:17.835Z,38.89
2018-07-04T06:49:18.006Z,38.65
2018-07-04T06:50:17.985Z,36.91
2018-07-04T06:51:18.064Z,35.89
2018-07-04T06:52:18.136Z,34.93
2018-07-04T06:53:18.204Z,34.65
2018-07-04T06:54:18.420Z,33.28
2018-07-04T06:55:18.360Z,33.79
2018-07-04T06:56:18.446Z,32.89
2018-07-04T06:57:18.515Z,33.95
2018-07-04T06:58:18.584Z,33.64
2018-07-04T06:59:18.660Z,34.08
2018-07-04T07:00:18.736Z,32.92
2018-07-04T07:01:18.819Z,32.34
2018-07-04T07:02:18.896Z,33.12
2018-07-04T07:03:18.964Z,31.67
2018-07-04T07:04:19.044Z,30.39
2018-07-04T07:05:19.120Z,30.60
2018-07-04T07:06:19.216Z,31.30
2018-07-04T07:07:19.279Z,30.14
2018-07-04T07:08:19.535Z,28.88
2018-07-04T07:09:19.433Z,28.20
2018-07-04T07:10:19.508Z,29.19
2018-07-04T07:11:19.597Z,27.81
2018-07-04T07:12:19.673Z,27.51
2018-07-04T07:13:19.745Z,26.81
2018-07-04T07:14:19.873Z,27.22
2018-07-04T07:15:19.905Z,28.00
2018-07-04T07:16:19.989Z,27.61
2018-07-04T07:17:20.069Z,27.54
2018-07-04T07:18:20.142Z,26.64
2018-07-04T07:19:20.221Z,27.72
2018-07-04T07:20:20.301Z,28.02
2018-07-04T07:21:20.381Z,26.25
2018-07-04T07:22:20.473Z,26.65
2018-07-04T07:23:20.540Z,26.26
2018-07-04T07:24:20.621Z,25.88
2018-07-04T07:25:20.697Z,25.50
2018-07-04T07:26:20.778Z,24.91
2018-07-04T07:27:20.865Z,24.62
2018-07-04T07:28:20.948Z,24.71
2018-07-04T07:29:21.017Z,24.73
2018-07-04T07:30:21.097Z,24.15
2018-07-04T07:31:21.184Z,25.33
2018-07-04T07:32:21.261Z,23.86
2018-07-04T07:33:21.454Z,24.85
2018-07-04T07:34:21.486Z,24.44
2018-07-04T07:35:21.502Z,24.44
2018-07-04T07:36:21.585Z,24.04
2018-07-04T07:37:21.666Z,25.81
2018-07-04T07:38:21.750Z,24.73
2018-07-04T07:39:21.830Z,25.71
2018-07-04T07:40:21.906Z,24.44
2018-07-04T07:41:21.982Z,23.85
2018-07-04T07:42:22.066Z,23.86
2018-07-04T07:43:22.161Z,23.66
2018-07-04T07:44:22.226Z,23.95
2018-07-04T07:45:22.306Z,24.74
2018-07-04T07:46:22.386Z,24.84
2018-07-04T07:47:22.470Z,25.81
2018-07-04T07:48:22.554Z,26.19
2018-07-04T07:49:22.637Z,25.96
2018-07-04T07:50:22.710Z,26.04
2018-07-04T07:51:22.790Z,26.51
2018-07-04T07:52:22.874Z,27.95
2018-07-04T07:53:22.955Z,27.75
2018-07-04T07:54:23.074Z,28.03
2018-07-04T07:55:23.113Z,29.21
2018-07-04T07:56:23.186Z,29.22
2018-07-04T07:57:23.266Z,29.06
2018-07-04T07:58:23.342Z,28.11
2018-07-04T07:59:23.730Z,26.75
2018-07-04T08:00:23.503Z,26.08
2018-07-04T08:01:23.578Z,26.18
2018-07-04T08:02:23.655Z,26.68
2018-07-04T08:03:23.739Z,26.09
2018-07-04T08:04:23.827Z,25.42
2018-07-04T08:05:23.904Z,25.01
2018-07-04T08:06:23.974Z,25.12
2018-07-04T08:07:24.059Z,24.63
2018-07-04T08:08:24.135Z,25.13
2018-07-04T08:09:24.381Z,24.74
2018-07-04T08:10:24.295Z,23.85
2018-07-04T08:11:24.375Z,24.04
2018-07-04T08:12:24.454Z,24.63
2018-07-04T08:13:24.559Z,23.84
2018-07-04T08:14:24.629Z,23.93
2018-07-04T08:15:24.703Z,24.59
2018-07-04T08:16:24.771Z,24.38
2018-07-04T08:17:24.851Z,25.67
2018-07-04T08:18:24.931Z,26.64
2018-07-04T08:19:25.015Z,26.31
2018-07-04T08:20:25.095Z,26.69
2018-07-04T08:21:25.169Z,26.72
2018-07-04T08:22:25.247Z,26.92
2018-07-04T08:23:25.323Z,26.35
2018-07-04T08:24:25.409Z,26.43
2018-07-04T08:25:25.487Z,26.81
2018-07-04T08:26:25.618Z,27.57
2018-07-04T08:27:25.639Z,27.95
2018-07-04T08:28:25.715Z,28.81
2018-07-04T08:29:25.799Z,29.77
2018-07-04T08:30:25.876Z,30.91
2018-07-04T08:31:25.947Z,31.88
2018-07-04T08:32:26.025Z,31.67
2018-07-04T08:33:26.111Z,32.84
2018-07-04T08:34:26.292Z,32.52
2018-07-04T08:35:26.265Z,33.20
2018-07-04T08:36:26.332Z,32.99
2018-07-04T08:37:26.404Z,34.45
2018-07-04T08:38:26.480Z,33.95
2018-07-04T08:39:26.564Z,34.32
2018-07-04T08:40:26.643Z,35.30
2018-07-04T08:41:26.708Z,34.99
2018-07-04T08:42:26.780Z,35.77
2018-07-04T08:43:26.856Z,36.06
2018-07-04T08:44:26.936Z,35.77
2018-07-04T08:45:27.013Z,35.67
2018-07-04T08:46:27.081Z,35.47
2018-07-04T08:47:27.153Z,36.63
2018-07-04T08:48:27.229Z,38.98
2018-07-04T08:49:27.300Z,38.30
2018-07-04T08:50:27.393Z,37.13
2018-07-04T08:51:27.448Z,38.98
2018-07-04T08:52:27.554Z,38.22
2018-07-04T08:53:27.595Z,38.26
2018-07-04T08:54:27.665Z,36.52
2018-07-04T08:55:27.745Z,36.02
2018-07-04T08:56:27.816Z,36.99
2018-07-04T08:57:27.885Z,38.65
2018-07-04T08:58:28.020Z,37.77
2018-07-04T08:59:28.033Z,38.34
2018-07-04T09:00:28.117Z,38.16
2018-07-04T09:01:28.183Z,37.95
2018-07-04T09:02:28.249Z,38.73
2018-07-04T09:03:28.321Z,39.22
2018-07-04T09:04:28.397Z,36.10
2018-07-04T09:05:28.517Z,36.98
2018-07-04T09:06:28.545Z,37.75
2018-07-04T09:07:28.613Z,37.73
2018-07-04T09:08:28.685Z,37.63
2018-07-04T09:09:28.757Z,37.52
2018-07-04T09:10:28.838Z,37.43
2018-07-04T09:11:28.945Z,38.20
2018-07-04T09:12:28.978Z,38.01
2018-07-04T09:13:29.051Z,39.45
2018-07-04T09:14:29.122Z,38.67
2018-07-04T09:15:29.194Z,39.26
2018-07-04T09:16:29.418Z,39.55
2018-07-04T09:17:29.338Z,38.85
2018-07-04T09:18:29.410Z,39.34
2018-07-04T09:19:29.482Z,39.82
2018-07-04T09:20:29.554Z,40.31
2018-07-04T09:21:29.630Z,41.06
2018-07-04T09:22:29.702Z,40.78
2018-07-04T09:23:29.774Z,41.36
2018-07-04T09:24:29.900Z,42.04
2018-07-04T09:25:29.910Z,42.21
2018-07-04T09:26:29.999Z,42.31
2018-07-04T09:27:30.062Z,42.41
2018-07-04T09:28:30.126Z,42.80
2018-07-04T09:29:30.199Z,45.62
2018-07-04T09:30:30.271Z,47.34
2018-07-04T09:31:30.652Z,48.30
2018-07-04T09:32:30.411Z,50.70
2018-07-04T09:33:30.483Z,52.45
2018-07-04T09:34:30.555Z,52.62
2018-07-04T09:35:30.627Z,55.63
2018-07-04T09:36:30.705Z,55.43
2018-07-04T09:37:30.774Z,56.30
2018-07-04T09:38:30.863Z,56.50
2018-07-04T09:39:30.911Z,56.50
2018-07-04T09:40:30.979Z,56.70
2018-07-04T09:41:31.059Z,55.53
2018-07-04T09:42:31.127Z,55.43
2018-07-04T09:43:31.191Z,56.60
2018-07-04T09:44:31.267Z,56.40
2018-07-04T09:45:31.332Z,56.24
2018-07-04T09:46:31.407Z,54.78
2018-07-04T09:47:31.479Z,56.07
2018-07-04T09:48:31.551Z,53.38
2018-07-04T09:49:31.612Z,53.08
2018-07-04T09:50:31.684Z,52.21
2018-07-04T09:51:31.767Z,51.72
2018-07-04T09:52:31.832Z,52.04
2018-07-04T09:53:31.895Z,51.17
2018-07-04T09:54:31.968Z,50.78
2018-07-04T09:55:32.036Z,49.71
2018-07-04T09:56:32.264Z,47.98
2018-07-04T09:57:32.179Z,50.78
2018-07-04T09:58:32.248Z,50.12
2018-07-04T09:59:32.320Z,49.63
2018-07-04T10:00:32.392Z,47.88
2018-07-04T10:01:32.468Z,48.19
2018-07-04T10:02:32.540Z,47.61
2018-07-04T10:03:32.604Z,48.39
2018-07-04T10:04:32.672Z,45.68
2018-07-04T10:05:32.756Z,46.30
2018-07-04T10:06:32.821Z,44.83
2018-07-04T10:07:32.892Z,45.61
2018-07-04T10:08:32.960Z,43.76
2018-07-04T10:09:33.028Z,43.54
2018-07-04T10:10:33.108Z,46.08
2018-07-04T10:11:33.324Z,45.98
2018-07-04T10:12:33.260Z,44.30
2018-07-04T10:13:33.312Z,45.18
2018-07-04T10:14:33.384Z,46.93
2018-07-04T10:15:33.457Z,46.93
2018-07-04T10:16:33.532Z,47.13
2018-07-04T10:17:33.604Z,47.03
2018-07-04T10:18:33.673Z,48.10
2018-07-04T10:19:33.740Z,47.32
2018-07-04T10:20:33.808Z,47.32
2018-07-04T10:21:33.889Z,46.15
2018-07-04T10:22:33.960Z,46.25
2018-07-04T10:23:34.029Z,46.25
2018-07-04T10:24:34.144Z,46.25
2018-07-04T10:25:34.164Z,46.81
2018-07-04T10:26:34.357Z,47.10
2018-07-04T10:27:34.309Z,48.46
2018-07-04T10:28:34.384Z,48.17
2018-07-04T10:29:34.449Z,49.32
2018-07-04T10:30:34.521Z,49.63
2018-07-04T10:31:34.597Z,49.73
2018-07-04T10:32:34.670Z,48.25
2018-07-04T10:33:34.737Z,47.00
2018-07-04T10:34:34.805Z,47.69
2018-07-04T10:35:34.887Z,48.17
2018-07-04T10:36:34.954Z,48.95
2018-07-04T10:37:35.037Z,50.31
2018-07-04T10:38:35.090Z,49.99
2018-07-04T10:39:35.180Z,49.71
2018-07-04T10:40:35.232Z,50.78
2018-07-04T10:41:35.306Z,49.83
2018-07-04T10:42:35.402Z,50.29
2018-07-04T10:43:35.442Z,50.58
2018-07-04T10:44:35.514Z,50.87
2018-07-04T10:45:35.586Z,51.45
2018-07-04T10:46:35.654Z,52.23
2018-07-04T10:47:35.730Z,52.98
2018-07-04T10:48:35.802Z,54.05
2018-07-04T10:49:35.866Z,54.15
2018-07-04T10:50:35.942Z,54.03
2018-07-04T10:51:36.002Z,54.22
2018-07-04T10:52:36.107Z,54.61
2018-07-04T10:53:36.146Z,55.19
2018-07-04T10:54:36.218Z,55.88
2018-07-04T10:55:36.290Z,55.58
2018-07-04T10:56:36.359Z,55.58
2018-07-04T10:57:36.435Z,55.88
2018-07-04T10:58:36.563Z,55.68
2018-07-04T10:59:36.570Z,55.58
2018-07-04T11:00:36.639Z,56.75
2018-07-04T11:01:36.714Z,56.56
2018-07-04T11:02:36.783Z,56.77
2018-07-04T11:03:36.858Z,56.07
2018-07-04T11:04:37.010Z,56.59
2018-07-04T11:05:36.991Z,56.39
2018-07-04T11:06:37.063Z,55.74
2018-07-04T11:07:37.196Z,56.41
2018-07-04T11:08:37.203Z,55.93
2018-07-04T11:09:37.275Z,55.27
2018-07-04T11:10:37.351Z,54.60
2018-07-04T11:11:37.411Z,54.43
2018-07-04T11:12:37.499Z,54.13
2018-07-04T11:13:37.571Z,53.97
2018-07-04T11:14:37.619Z,52.31
2018-07-04T11:15:37.695Z,51.36
2018-07-04T11:16:37.768Z,50.58
2018-07-04T11:17:37.843Z,50.70
2018-07-04T11:18:37.911Z,50.14
2018-07-04T11:19:37.977Z,48.90
2018-07-04T11:20:38.055Z,47.27
2018-07-04T11:21:38.119Z,48.55
2018-07-04T11:22:38.245Z,47.48
2018-07-04T11:23:38.263Z,46.53
2018-07-04T11:24:38.331Z,44.87
2018-07-04T11:25:38.404Z,45.26
2018-07-04T11:26:38.476Z,44.74
2018-07-04T11:27:38.559Z,45.23
2018-07-04T11:28:38.628Z,44.96
2018-07-04T11:29:38.692Z,44.49
2018-07-04T11:30:38.764Z,43.01
2018-07-04T11:31:38.836Z,42.64
2018-07-04T11:32:38.912Z,42.74
2018-07-04T11:33:38.989Z,42.25
2018-07-04T11:34:39.052Z,43.05
2018-07-04T11:35:39.124Z,44.42
2018-07-04T11:36:39.229Z,42.27
2018-07-04T11:37:39.280Z,40.70
2018-07-04T11:38:39.384Z,41.68
2018-07-04T11:39:39.416Z,42.07
2018-07-04T11:40:39.486Z,43.27
2018-07-04T11:41:39.560Z,41.92
2018-07-04T11:42:39.632Z,41.25
2018-07-04T11:43:39.708Z,39.31
2018-07-04T11:44:39.785Z,39.29
2018-07-04T11:45:39.845Z,39.29
2018-07-04T11:46:39.920Z,40.41
2018-07-04T11:47:39.996Z,41.58
2018-07-04T11:48:40.096Z,42.54
2018-07-04T11:49:40.236Z,41.96
2018-07-04T11:50:40.212Z,42.77
2018-07-04T11:51:40.300Z,42.97
2018-07-04T11:52:40.361Z,43.26
2018-07-04T11:53:40.437Z,44.26
2018-07-04T11:54:40.517Z,42.22
2018-07-04T11:55:40.600Z,42.05
2018-07-04T11:56:40.652Z,42.25
2018-07-04T11:57:40.732Z,42.25
2018-07-04T11:58:40.801Z,42.07
2018-07-04T11:59:40.901Z,42.36
2018-07-04T12:00:40.940Z,43.05
2018-07-04T12:01:41.069Z,42.17
2018-07-04T12:02:41.089Z,42.09
2018-07-04T12:03:41.245Z,41.60
2018-07-04T12:04:41.233Z,42.38
2018-07-04T12:05:41.309Z,42.68
2018-07-04T12:06:41.385Z,43.56
2018-07-04T12:07:41.453Z,43.37
2018-07-04T12:08:41.545Z,42.09
2018-07-04T12:09:41.605Z,41.97
2018-07-04T12:10:41.673Z,41.09
2018-07-04T12:11:41.745Z,41.46
2018-07-04T12:12:41.817Z,42.05
2018-07-04T12:13:41.897Z,42.64
2018-07-04T12:14:41.978Z,41.86
2018-07-04T12:15:42.037Z,42.35
2018-07-04T12:16:42.105Z,42.25
2018-07-04T12:17:42.181Z,43.79
2018-07-04T12:18:42.429Z,45.65
2018-07-04T12:19:42.334Z,44.96
2018-07-04T12:20:42.403Z,43.30
2018-07-04T12:21:42.484Z,43.79
2018-07-04T12:22:42.550Z,45.06
2018-07-04T12:23:42.646Z,46.01
2018-07-04T12:24:42.698Z,45.62
2018-07-04T12:25:42.762Z,46.31
2018-07-04T12:26:42.910Z,44.55
2018-07-04T12:27:42.910Z,44.16
2018-07-04T12:28:43.002Z,46.11
2018-07-04T12:29:43.062Z,44.74
2018-07-04T12:30:43.129Z,47.38
2018-07-04T12:31:43.248Z,45.62
2018-07-04T12:32:43.279Z,45.72
2018-07-04T12:33:43.359Z,45.82
2018-07-04T12:34:44.203Z,44.45
2018-07-04T12:35:43.490Z,44.55
2018-07-04T12:36:43.562Z,45.23
2018-07-04T12:37:43.634Z,46.41
2018-07-04T12:38:43.715Z,45.82
2018-07-04T12:39:43.798Z,46.60
2018-07-04T12:40:43.857Z,45.92
2018-07-04T12:41:43.923Z,47.19
2018-07-04T12:42:43.999Z,46.09
2018-07-04T12:43:44.273Z,46.11
2018-07-04T12:44:44.143Z,44.82
2018-07-04T12:45:44.215Z,45.12
2018-07-04T12:46:44.287Z,45.90
2018-07-04T12:47:44.359Z,47.17
2018-07-04T12:48:44.440Z,46.09
2018-07-04T12:49:44.517Z,46.19
2018-07-04T12:50:44.575Z,46.29
2018-07-04T12:51:44.647Z,47.07
2018-07-04T12:52:44.719Z,47.34
2018-07-04T12:53:44.799Z,47.46